sensor_id;sensor_type;location;lat;lon;timestamp;P1;durP1;ratioP1;P2;durP2;ratioP2
31990;SDS011;18508;49.386;8.370;2023-09-19T00:00:38;3.05;;;1.50;;
31990;SDS011;18508;49.386;8.370;2023-09-19T00:03:08;4.18;;;0.98;;
31990;SDS011;18508;49.386;8.370;2023-09-19T00:05:39;2.88;;;1.20;;
31990;SDS011;18508;49.386;8.370;2023-09-19T00:08:09;2.17;;;1.00;;
31990;SDS011;18508;49.386;8.370;2023-09-19T00:10:41;4.18;;;1.27;;
31990;SDS011;18508;49.386;8.370;2023-09-19T00:13:10;2.60;;;1.27;;
31990;SDS011;18508;49.386;8.370;2023-09-19T00:15:42;3.13;;;1.20;;
31990;SDS011;18508;49.386;8.370;2023-09-19T00:18:16;9.10;;;1.60;;
31990;SDS011;18508;49.386;8.370;2023-09-19T00:20:47;4.65;;;1.42;;
31990;SDS011;18508;49.386;8.370;2023-09-19T00:23:19;3.47;;;1.52;;
31990;SDS011;18508;49.386;8.370;2023-09-19T00:25:49;5.93;;;1.30;;
31990;SDS011;18508;49.386;8.370;2023-09-19T00:28:17;5.80;;;1.38;;
31990;SDS011;18508;49.386;8.370;2023-09-19T00:30:46;3.25;;;1.30;;
31990;SDS011;18508;49.386;8.370;2023-09-19T00:33:17;6.63;;;1.42;;
31990;SDS011;18508;49.386;8.370;2023-09-19T00:35:49;4.68;;;1.20;;
31990;SDS011;18508;49.386;8.370;2023-09-19T00:38:20;3.33;;;1.35;;
31990;SDS011;18508;49.386;8.370;2023-09-19T00:40:55;4.13;;;1.77;;
31990;SDS011;18508;49.386;8.370;2023-09-19T00:43:26;5.75;;;1.60;;
31990;SDS011;18508;49.386;8.370;2023-09-19T00:45:56;3.35;;;1.30;;
31990;SDS011;18508;49.386;8.370;2023-09-19T00:48:27;4.25;;;1.42;;
31990;SDS011;18508;49.386;8.370;2023-09-19T00:50:56;4.90;;;1.50;;
31990;SDS011;18508;49.386;8.370;2023-09-19T00:53:26;4.22;;;1.55;;
31990;SDS011;18508;49.386;8.370;2023-09-19T00:55:57;4.22;;;1.70;;
31990;SDS011;18508;49.386;8.370;2023-09-19T00:58:25;4.80;;;1.83;;
31990;SDS011;18508;49.386;8.370;2023-09-19T01:00:59;3.70;;;1.40;;
31990;SDS011;18508;49.386;8.370;2023-09-19T01:03:27;4.00;;;1.70;;
31990;SDS011;18508;49.386;8.370;2023-09-19T01:05:56;4.82;;;1.80;;
31990;SDS011;18508;49.386;8.370;2023-09-19T01:08:24;3.85;;;1.40;;
31990;SDS011;18508;49.386;8.370;2023-09-19T01:10:59;4.32;;;1.42;;
31990;SDS011;18508;49.386;8.370;2023-09-19T01:13:39;4.95;;;1.75;;
31990;SDS011;18508;49.386;8.370;2023-09-19T01:16:28;5.68;;;1.50;;
31990;SDS011;18508;49.386;8.370;2023-09-19T01:19:06;6.72;;;1.75;;
31990;SDS011;18508;49.386;8.370;2023-09-19T01:21:49;4.50;;;1.70;;
31990;SDS011;18508;49.386;8.370;2023-09-19T01:24:30;9.85;;;1.63;;
31990;SDS011;18508;49.386;8.370;2023-09-19T01:27:22;4.10;;;1.77;;
31990;SDS011;18508;49.386;8.370;2023-09-19T01:30:11;5.72;;;1.42;;
31990;SDS011;18508;49.386;8.370;2023-09-19T01:32:43;6.35;;;1.98;;
31990;SDS011;18508;49.386;8.370;2023-09-19T01:35:13;5.45;;;1.95;;
31990;SDS011;18508;49.386;8.370;2023-09-19T01:37:41;5.25;;;2.13;;
31990;SDS011;18508;49.386;8.370;2023-09-19T01:40:12;3.53;;;1.67;;
31990;SDS011;18508;49.386;8.370;2023-09-19T01:42:45;4.60;;;1.70;;
31990;SDS011;18508;49.386;8.370;2023-09-19T01:48:17;4.55;;;1.65;;
31990;SDS011;18508;49.386;8.370;2023-09-19T01:50:53;5.72;;;1.80;;
31990;SDS011;18508;49.386;8.370;2023-09-19T01:53:26;4.25;;;2.10;;
31990;SDS011;18508;49.386;8.370;2023-09-19T01:55:57;6.82;;;2.13;;
31990;SDS011;18508;49.386;8.370;2023-09-19T01:58:32;3.65;;;1.90;;
31990;SDS011;18508;49.386;8.370;2023-09-19T02:01:04;6.10;;;2.00;;
31990;SDS011;18508;49.386;8.370;2023-09-19T02:06:04;5.15;;;1.90;;
31990;SDS011;18508;49.386;8.370;2023-09-19T02:08:37;3.78;;;2.17;;
31990;SDS011;18508;49.386;8.370;2023-09-19T02:11:06;4.25;;;1.75;;
31990;SDS011;18508;49.386;8.370;2023-09-19T02:13:34;5.50;;;1.63;;
31990;SDS011;18508;49.386;8.370;2023-09-19T02:16:06;4.63;;;1.50;;
31990;SDS011;18508;49.386;8.370;2023-09-19T02:18:36;3.67;;;1.63;;
31990;SDS011;18508;49.386;8.370;2023-09-19T02:21:05;4.32;;;1.77;;
31990;SDS011;18508;49.386;8.370;2023-09-19T02:23:35;5.43;;;2.05;;
31990;SDS011;18508;49.386;8.370;2023-09-19T02:26:05;3.55;;;1.60;;
31990;SDS011;18508;49.386;8.370;2023-09-19T02:28:33;6.72;;;2.22;;
31990;SDS011;18508;49.386;8.370;2023-09-19T02:31:02;6.00;;;2.25;;
31990;SDS011;18508;49.386;8.370;2023-09-19T02:33:34;5.75;;;1.83;;
31990;SDS011;18508;49.386;8.370;2023-09-19T02:36:04;4.43;;;2.03;;
31990;SDS011;18508;49.386;8.370;2023-09-19T02:38:33;5.68;;;1.70;;
31990;SDS011;18508;49.386;8.370;2023-09-19T02:41:02;6.32;;;1.60;;
31990;SDS011;18508;49.386;8.370;2023-09-19T02:43:30;2.50;;;1.45;;
31990;SDS011;18508;49.386;8.370;2023-09-19T02:45:59;3.83;;;1.90;;
31990;SDS011;18508;49.386;8.370;2023-09-19T02:48:29;6.18;;;1.75;;
31990;SDS011;18508;49.386;8.370;2023-09-19T02:51:01;4.80;;;1.98;;
31990;SDS011;18508;49.386;8.370;2023-09-19T02:53:32;6.88;;;2.42;;
31990;SDS011;18508;49.386;8.370;2023-09-19T02:56:00;5.10;;;2.03;;
31990;SDS011;18508;49.386;8.370;2023-09-19T02:58:31;4.65;;;1.58;;
31990;SDS011;18508;49.386;8.370;2023-09-19T03:01:07;4.72;;;1.90;;
31990;SDS011;18508;49.386;8.370;2023-09-19T03:03:38;4.93;;;1.83;;
31990;SDS011;18508;49.386;8.370;2023-09-19T03:06:09;3.95;;;1.90;;
31990;SDS011;18508;49.386;8.370;2023-09-19T03:08:38;3.45;;;1.83;;
31990;SDS011;18508;49.386;8.370;2023-09-19T03:11:08;4.13;;;1.90;;
31990;SDS011;18508;49.386;8.370;2023-09-19T03:13:38;7.20;;;2.17;;
31990;SDS011;18508;49.386;8.370;2023-09-19T03:16:08;2.55;;;1.60;;
31990;SDS011;18508;49.386;8.370;2023-09-19T03:18:37;6.97;;;1.90;;
31990;SDS011;18508;49.386;8.370;2023-09-19T03:21:06;6.65;;;2.05;;
31990;SDS011;18508;49.386;8.370;2023-09-19T03:23:36;6.00;;;2.05;;
31990;SDS011;18508;49.386;8.370;2023-09-19T03:26:06;3.88;;;1.98;;
31990;SDS011;18508;49.386;8.370;2023-09-19T03:28:34;6.88;;;2.45;;
31990;SDS011;18508;49.386;8.370;2023-09-19T03:31:04;4.53;;;2.22;;
31990;SDS011;18508;49.386;8.370;2023-09-19T03:33:33;4.40;;;2.42;;
31990;SDS011;18508;49.386;8.370;2023-09-19T03:36:02;5.70;;;2.47;;
31990;SDS011;18508;49.386;8.370;2023-09-19T03:38:32;4.28;;;1.88;;
31990;SDS011;18508;49.386;8.370;2023-09-19T03:41:03;12.98;;;2.53;;
31990;SDS011;18508;49.386;8.370;2023-09-19T03:43:32;6.10;;;2.72;;
31990;SDS011;18508;49.386;8.370;2023-09-19T03:46:01;5.13;;;2.50;;
31990;SDS011;18508;49.386;8.370;2023-09-19T03:48:31;4.50;;;1.98;;
31990;SDS011;18508;49.386;8.370;2023-09-19T03:51:00;3.83;;;2.08;;
31990;SDS011;18508;49.386;8.370;2023-09-19T03:53:29;3.80;;;2.17;;
31990;SDS011;18508;49.386;8.370;2023-09-19T03:55:58;5.32;;;2.28;;
31990;SDS011;18508;49.386;8.370;2023-09-19T03:58:30;5.15;;;2.10;;
31990;SDS011;18508;49.386;8.370;2023-09-19T04:01:00;6.00;;;2.08;;
31990;SDS011;18508;49.386;8.370;2023-09-19T04:03:29;5.13;;;2.13;;
31990;SDS011;18508;49.386;8.370;2023-09-19T04:06:02;8.52;;;2.33;;
31990;SDS011;18508;49.386;8.370;2023-09-19T04:08:30;7.85;;;2.17;;
31990;SDS011;18508;49.386;8.370;2023-09-19T04:10:59;6.18;;;2.50;;
31990;SDS011;18508;49.386;8.370;2023-09-19T04:13:27;5.47;;;2.67;;
31990;SDS011;18508;49.386;8.370;2023-09-19T04:15:57;7.15;;;2.60;;
31990;SDS011;18508;49.386;8.370;2023-09-19T04:18:26;8.38;;;2.58;;
31990;SDS011;18508;49.386;8.370;2023-09-19T04:20:57;5.57;;;2.38;;
31990;SDS011;18508;49.386;8.370;2023-09-19T04:23:29;4.18;;;2.10;;
31990;SDS011;18508;49.386;8.370;2023-09-19T04:26:00;6.43;;;2.60;;
31990;SDS011;18508;49.386;8.370;2023-09-19T04:28:30;9.20;;;2.78;;
31990;SDS011;18508;49.386;8.370;2023-09-19T04:31:01;7.28;;;2.55;;
31990;SDS011;18508;49.386;8.370;2023-09-19T04:33:31;6.15;;;2.58;;
31990;SDS011;18508;49.386;8.370;2023-09-19T04:36:04;3.92;;;2.10;;
31990;SDS011;18508;49.386;8.370;2023-09-19T04:38:56;7.00;;;2.10;;
31990;SDS011;18508;49.386;8.370;2023-09-19T04:41:24;8.60;;;2.95;;
31990;SDS011;18508;49.386;8.370;2023-09-19T04:43:53;6.10;;;2.45;;
31990;SDS011;18508;49.386;8.370;2023-09-19T04:46:23;5.78;;;2.88;;
31990;SDS011;18508;49.386;8.370;2023-09-19T04:48:51;7.72;;;2.33;;
31990;SDS011;18508;49.386;8.370;2023-09-19T04:51:20;4.93;;;2.20;;
31990;SDS011;18508;49.386;8.370;2023-09-19T04:53:48;5.05;;;2.60;;
31990;SDS011;18508;49.386;8.370;2023-09-19T04:56:17;7.32;;;2.95;;
31990;SDS011;18508;49.386;8.370;2023-09-19T04:58:47;5.80;;;2.42;;
31990;SDS011;18508;49.386;8.370;2023-09-19T05:01:18;6.70;;;2.70;;
31990;SDS011;18508;49.386;8.370;2023-09-19T05:03:50;5.57;;;2.65;;
31990;SDS011;18508;49.386;8.370;2023-09-19T05:06:20;8.85;;;3.60;;
31990;SDS011;18508;49.386;8.370;2023-09-19T05:08:49;7.05;;;3.35;;
31990;SDS011;18508;49.386;8.370;2023-09-19T05:11:19;5.45;;;3.20;;
31990;SDS011;18508;49.386;8.370;2023-09-19T05:13:48;5.88;;;3.20;;
31990;SDS011;18508;49.386;8.370;2023-09-19T05:16:19;6.72;;;3.50;;
31990;SDS011;18508;49.386;8.370;2023-09-19T05:18:48;8.85;;;4.00;;
31990;SDS011;18508;49.386;8.370;2023-09-19T05:21:24;6.72;;;3.10;;
31990;SDS011;18508;49.386;8.370;2023-09-19T05:23:55;6.10;;;3.20;;
31990;SDS011;18508;49.386;8.370;2023-09-19T05:26:24;9.98;;;3.60;;
31990;SDS011;18508;49.386;8.370;2023-09-19T05:28:52;6.15;;;3.67;;
31990;SDS011;18508;49.386;8.370;2023-09-19T05:31:20;8.40;;;4.53;;
31990;SDS011;18508;49.386;8.370;2023-09-19T05:33:50;9.00;;;4.10;;
31990;SDS011;18508;49.386;8.370;2023-09-19T05:36:21;10.65;;;4.40;;
31990;SDS011;18508;49.386;8.370;2023-09-19T05:38:51;7.03;;;4.05;;
31990;SDS011;18508;49.386;8.370;2023-09-19T05:41:20;9.77;;;3.92;;
31990;SDS011;18508;49.386;8.370;2023-09-19T05:43:48;11.25;;;4.15;;
31990;SDS011;18508;49.386;8.370;2023-09-19T05:46:17;5.97;;;3.83;;
31990;SDS011;18508;49.386;8.370;2023-09-19T05:48:46;7.60;;;3.80;;
31990;SDS011;18508;49.386;8.370;2023-09-19T05:51:16;7.43;;;4.00;;
31990;SDS011;18508;49.386;8.370;2023-09-19T05:53:50;5.97;;;3.75;;
31990;SDS011;18508;49.386;8.370;2023-09-19T05:56:18;7.50;;;3.92;;
31990;SDS011;18508;49.386;8.370;2023-09-19T05:58:47;6.90;;;3.15;;
31990;SDS011;18508;49.386;8.370;2023-09-19T06:01:16;10.60;;;3.35;;
31990;SDS011;18508;49.386;8.370;2023-09-19T06:03:45;7.63;;;2.72;;
31990;SDS011;18508;49.386;8.370;2023-09-19T06:06:13;9.15;;;3.03;;
31990;SDS011;18508;49.386;8.370;2023-09-19T06:08:42;8.18;;;2.83;;
31990;SDS011;18508;49.386;8.370;2023-09-19T06:11:14;6.30;;;2.58;;
31990;SDS011;18508;49.386;8.370;2023-09-19T06:13:43;7.45;;;2.67;;
31990;SDS011;18508;49.386;8.370;2023-09-19T06:16:13;8.80;;;2.60;;
31990;SDS011;18508;49.386;8.370;2023-09-19T06:18:42;7.30;;;3.15;;
31990;SDS011;18508;49.386;8.370;2023-09-19T06:21:11;5.15;;;2.67;;
31990;SDS011;18508;49.386;8.370;2023-09-19T06:23:40;7.72;;;2.67;;
31990;SDS011;18508;49.386;8.370;2023-09-19T06:26:08;5.40;;;2.67;;
31990;SDS011;18508;49.386;8.370;2023-09-19T06:28:41;5.10;;;2.38;;
31990;SDS011;18508;49.386;8.370;2023-09-19T06:31:17;7.90;;;3.03;;
31990;SDS011;18508;49.386;8.370;2023-09-19T06:33:47;8.63;;;3.03;;
31990;SDS011;18508;49.386;8.370;2023-09-19T06:36:16;6.65;;;2.47;;
31990;SDS011;18508;49.386;8.370;2023-09-19T06:38:45;5.03;;;2.58;;
31990;SDS011;18508;49.386;8.370;2023-09-19T06:41:15;6.13;;;3.00;;
31990;SDS011;18508;49.386;8.370;2023-09-19T06:43:45;6.28;;;2.70;;
31990;SDS011;18508;49.386;8.370;2023-09-19T06:46:14;6.75;;;2.50;;
31990;SDS011;18508;49.386;8.370;2023-09-19T06:48:44;4.95;;;2.63;;
31990;SDS011;18508;49.386;8.370;2023-09-19T06:51:14;6.15;;;2.65;;
31990;SDS011;18508;49.386;8.370;2023-09-19T06:53:43;4.45;;;2.28;;
31990;SDS011;18508;49.386;8.370;2023-09-19T06:56:11;3.47;;;2.17;;
31990;SDS011;18508;49.386;8.370;2023-09-19T06:58:40;7.88;;;2.55;;
31990;SDS011;18508;49.386;8.370;2023-09-19T07:01:11;7.30;;;2.83;;
31990;SDS011;18508;49.386;8.370;2023-09-19T07:03:41;3.70;;;2.00;;
31990;SDS011;18508;49.386;8.370;2023-09-19T07:06:12;4.00;;;2.13;;
31990;SDS011;18508;49.386;8.370;2023-09-19T07:08:40;7.40;;;2.65;;
31990;SDS011;18508;49.386;8.370;2023-09-19T07:11:09;4.00;;;1.98;;
31990;SDS011;18508;49.386;8.370;2023-09-19T07:13:39;3.70;;;1.73;;
31990;SDS011;18508;49.386;8.370;2023-09-19T07:16:08;6.80;;;1.75;;
31990;SDS011;18508;49.386;8.370;2023-09-19T07:18:55;3.78;;;2.10;;
31990;SDS011;18508;49.386;8.370;2023-09-19T07:21:23;5.03;;;2.30;;
31990;SDS011;18508;49.386;8.370;2023-09-19T07:23:52;5.30;;;1.63;;
31990;SDS011;18508;49.386;8.370;2023-09-19T07:26:20;3.42;;;1.70;;
31990;SDS011;18508;49.386;8.370;2023-09-19T07:28:49;4.07;;;1.42;;
31990;SDS011;18508;49.386;8.370;2023-09-19T07:31:18;3.25;;;1.48;;
31990;SDS011;18508;49.386;8.370;2023-09-19T07:33:46;6.38;;;1.80;;
31990;SDS011;18508;49.386;8.370;2023-09-19T07:36:18;4.20;;;1.52;;
31990;SDS011;18508;49.386;8.370;2023-09-19T07:38:47;3.40;;;1.50;;
31990;SDS011;18508;49.386;8.370;2023-09-19T07:41:16;2.55;;;1.38;;
31990;SDS011;18508;49.386;8.370;2023-09-19T07:43:47;5.57;;;1.50;;
31990;SDS011;18508;49.386;8.370;2023-09-19T07:46:16;8.00;;;1.88;;
31990;SDS011;18508;49.386;8.370;2023-09-19T07:48:45;6.10;;;1.95;;
31990;SDS011;18508;49.386;8.370;2023-09-19T07:51:19;7.22;;;1.80;;
31990;SDS011;18508;49.386;8.370;2023-09-19T07:53:47;6.17;;;1.63;;
31990;SDS011;18508;49.386;8.370;2023-09-19T07:56:16;2.80;;;1.20;;
31990;SDS011;18508;49.386;8.370;2023-09-19T07:58:46;5.57;;;1.58;;
31990;SDS011;18508;49.386;8.370;2023-09-19T08:01:15;4.10;;;1.67;;
31990;SDS011;18508;49.386;8.370;2023-09-19T08:03:43;3.42;;;1.38;;
31990;SDS011;18508;49.386;8.370;2023-09-19T08:06:12;3.33;;;1.27;;
31990;SDS011;18508;49.386;8.370;2023-09-19T08:08:42;6.18;;;1.17;;
31990;SDS011;18508;49.386;8.370;2023-09-19T08:11:11;4.47;;;1.92;;
31990;SDS011;18508;49.386;8.370;2023-09-19T08:13:41;3.30;;;1.30;;
31990;SDS011;18508;49.386;8.370;2023-09-19T08:16:12;4.68;;;1.15;;
31990;SDS011;18508;49.386;8.370;2023-09-19T08:18:41;4.18;;;1.25;;
31990;SDS011;18508;49.386;8.370;2023-09-19T08:21:11;3.88;;;1.20;;
31990;SDS011;18508;49.386;8.370;2023-09-19T08:23:44;5.40;;;2.08;;
31990;SDS011;18508;49.386;8.370;2023-09-19T08:26:12;3.55;;;1.50;;
31990;SDS011;18508;49.386;8.370;2023-09-19T08:28:41;5.38;;;1.08;;
31990;SDS011;18508;49.386;8.370;2023-09-19T08:31:10;5.50;;;1.50;;
31990;SDS011;18508;49.386;8.370;2023-09-19T08:33:39;4.28;;;1.63;;
31990;SDS011;18508;49.386;8.370;2023-09-19T08:36:09;3.88;;;1.30;;
31990;SDS011;18508;49.386;8.370;2023-09-19T08:38:40;6.10;;;1.42;;
31990;SDS011;18508;49.386;8.370;2023-09-19T08:41:10;5.47;;;1.33;;
31990;SDS011;18508;49.386;8.370;2023-09-19T08:43:39;6.60;;;1.55;;
31990;SDS011;18508;49.386;8.370;2023-09-19T08:46:09;4.05;;;1.38;;
31990;SDS011;18508;49.386;8.370;2023-09-19T08:48:42;5.77;;;1.43;;
31990;SDS011;18508;49.386;8.370;2023-09-19T08:51:17;5.22;;;2.20;;
31990;SDS011;18508;49.386;8.370;2023-09-19T08:53:50;4.68;;;1.40;;
31990;SDS011;18508;49.386;8.370;2023-09-19T08:56:23;3.05;;;1.38;;
31990;SDS011;18508;49.386;8.370;2023-09-19T08:58:57;5.50;;;1.27;;
31990;SDS011;18508;49.386;8.370;2023-09-19T09:01:30;8.13;;;1.83;;
31990;SDS011;18508;49.386;8.370;2023-09-19T09:03:59;5.03;;;1.27;;
31990;SDS011;18508;49.386;8.370;2023-09-19T09:06:29;4.88;;;1.60;;
31990;SDS011;18508;49.386;8.370;2023-09-19T09:08:59;6.75;;;1.50;;
31990;SDS011;18508;49.386;8.370;2023-09-19T09:11:29;3.00;;;1.20;;
31990;SDS011;18508;49.386;8.370;2023-09-19T09:14:01;2.80;;;1.23;;
31990;SDS011;18508;49.386;8.370;2023-09-19T09:16:30;3.03;;;1.20;;
31990;SDS011;18508;49.386;8.370;2023-09-19T09:18:59;4.43;;;1.13;;
31990;SDS011;18508;49.386;8.370;2023-09-19T09:21:27;3.38;;;1.20;;
31990;SDS011;18508;49.386;8.370;2023-09-19T09:23:56;4.13;;;1.45;;
31990;SDS011;18508;49.386;8.370;2023-09-19T09:26:44;5.95;;;1.45;;
31990;SDS011;18508;49.386;8.370;2023-09-19T09:29:15;5.32;;;1.23;;
31990;SDS011;18508;49.386;8.370;2023-09-19T09:31:47;3.65;;;1.35;;
31990;SDS011;18508;49.386;8.370;2023-09-19T09:34:16;4.35;;;1.50;;
31990;SDS011;18508;49.386;8.370;2023-09-19T09:36:47;4.25;;;1.25;;
31990;SDS011;18508;49.386;8.370;2023-09-19T09:39:29;4.22;;;1.20;;
31990;SDS011;18508;49.386;8.370;2023-09-19T09:42:00;6.57;;;1.33;;
31990;SDS011;18508;49.386;8.370;2023-09-19T09:44:33;6.03;;;1.50;;
31990;SDS011;18508;49.386;8.370;2023-09-19T09:47:03;3.28;;;1.10;;
31990;SDS011;18508;49.386;8.370;2023-09-19T09:49:51;4.60;;;1.20;;
31990;SDS011;18508;49.386;8.370;2023-09-19T09:52:44;5.05;;;1.35;;
31990;SDS011;18508;49.386;8.370;2023-09-19T09:55:15;3.83;;;1.30;;
31990;SDS011;18508;49.386;8.370;2023-09-19T09:57:48;4.55;;;1.15;;
31990;SDS011;18508;49.386;8.370;2023-09-19T10:00:52;3.78;;;1.08;;
31990;SDS011;18508;49.386;8.370;2023-09-19T10:03:31;5.05;;;1.20;;
31990;SDS011;18508;49.386;8.370;2023-09-19T10:06:06;4.88;;;1.30;;
31990;SDS011;18508;49.386;8.370;2023-09-19T10:08:58;4.32;;;1.38;;
31990;SDS011;18508;49.386;8.370;2023-09-19T10:11:45;3.73;;;1.20;;
31990;SDS011;18508;49.386;8.370;2023-09-19T10:14:25;4.85;;;1.30;;
31990;SDS011;18508;49.386;8.370;2023-09-19T10:17:00;3.60;;;1.20;;
31990;SDS011;18508;49.386;8.370;2023-09-19T10:19:33;2.72;;;0.90;;
31990;SDS011;18508;49.386;8.370;2023-09-19T10:22:13;2.90;;;0.93;;
31990;SDS011;18508;49.386;8.370;2023-09-19T10:24:47;3.40;;;0.95;;
31990;SDS011;18508;49.386;8.370;2023-09-19T10:27:28;3.95;;;1.10;;
31990;SDS011;18508;49.386;8.370;2023-09-19T10:30:06;4.75;;;1.42;;
31990;SDS011;18508;49.386;8.370;2023-09-19T10:32:37;3.40;;;1.10;;
31990;SDS011;18508;49.386;8.370;2023-09-19T10:35:10;4.63;;;1.38;;
31990;SDS011;18508;49.386;8.370;2023-09-19T10:37:39;3.17;;;1.25;;
31990;SDS011;18508;49.386;8.370;2023-09-19T10:40:10;3.70;;;1.27;;
31990;SDS011;18508;49.386;8.370;2023-09-19T10:42:47;3.47;;;1.15;;
31990;SDS011;18508;49.386;8.370;2023-09-19T10:45:19;3.80;;;1.40;;
31990;SDS011;18508;49.386;8.370;2023-09-19T10:47:50;5.35;;;1.40;;
31990;SDS011;18508;49.386;8.370;2023-09-19T10:50:19;4.90;;;1.45;;
31990;SDS011;18508;49.386;8.370;2023-09-19T10:52:49;2.42;;;1.02;;
31990;SDS011;18508;49.386;8.370;2023-09-19T10:55:25;3.08;;;1.13;;
31990;SDS011;18508;49.386;8.370;2023-09-19T10:57:57;3.37;;;1.20;;
31990;SDS011;18508;49.386;8.370;2023-09-19T11:00:52;4.50;;;1.30;;
31990;SDS011;18508;49.386;8.370;2023-09-19T11:03:23;2.50;;;0.90;;
31990;SDS011;18508;49.386;8.370;2023-09-19T11:06:03;3.80;;;1.13;;
31990;SDS011;18508;49.386;8.370;2023-09-19T11:08:51;4.60;;;1.50;;
31990;SDS011;18508;49.386;8.370;2023-09-19T11:11:38;1.45;;;0.82;;
31990;SDS011;18508;49.386;8.370;2023-09-19T11:14:14;3.80;;;1.52;;
31990;SDS011;18508;49.386;8.370;2023-09-19T11:23:18;4.80;;;1.65;;
31990;SDS011;18508;49.386;8.370;2023-09-19T11:25:51;6.45;;;1.27;;
31990;SDS011;18508;49.386;8.370;2023-09-19T11:28:27;5.32;;;1.15;;
31990;SDS011;18508;49.386;8.370;2023-09-19T11:31:00;4.15;;;1.40;;
31990;SDS011;18508;49.386;8.370;2023-09-19T11:40:09;2.42;;;1.05;;
31990;SDS011;18508;49.386;8.370;2023-09-19T11:42:43;3.45;;;1.27;;
31990;SDS011;18508;49.386;8.370;2023-09-19T11:48:32;4.88;;;1.20;;
31990;SDS011;18508;49.386;8.370;2023-09-19T11:51:16;5.95;;;1.35;;
31990;SDS011;18508;49.386;8.370;2023-09-19T11:53:55;3.00;;;1.00;;
31990;SDS011;18508;49.386;8.370;2023-09-19T11:56:27;2.53;;;0.82;;
31990;SDS011;18508;49.386;8.370;2023-09-19T11:58:58;3.65;;;1.02;;
31990;SDS011;18508;49.386;8.370;2023-09-19T12:01:28;4.18;;;1.15;;
31990;SDS011;18508;49.386;8.370;2023-09-19T12:04:00;3.35;;;1.15;;
31990;SDS011;18508;49.386;8.370;2023-09-19T12:06:31;3.60;;;1.40;;
31990;SDS011;18508;49.386;8.370;2023-09-19T12:08:59;3.13;;;0.95;;
31990;SDS011;18508;49.386;8.370;2023-09-19T12:11:34;3.13;;;0.80;;
31990;SDS011;18508;49.386;8.370;2023-09-19T12:14:11;1.63;;;0.77;;
31990;SDS011;18508;49.386;8.370;2023-09-19T12:16:42;2.25;;;0.90;;
31990;SDS011;18508;49.386;8.370;2023-09-19T12:19:22;4.53;;;1.08;;
31990;SDS011;18508;49.386;8.370;2023-09-19T12:21:54;2.45;;;1.05;;
31990;SDS011;18508;49.386;8.370;2023-09-19T12:24:25;2.03;;;0.90;;
31990;SDS011;18508;49.386;8.370;2023-09-19T12:27:01;3.00;;;1.02;;
31990;SDS011;18508;49.386;8.370;2023-09-19T12:29:32;4.90;;;1.13;;
31990;SDS011;18508;49.386;8.370;2023-09-19T12:32:10;3.20;;;1.02;;
31990;SDS011;18508;49.386;8.370;2023-09-19T12:34:39;3.17;;;0.95;;
31990;SDS011;18508;49.386;8.370;2023-09-19T12:37:10;3.60;;;1.27;;
31990;SDS011;18508;49.386;8.370;2023-09-19T12:39:39;2.63;;;1.10;;
31990;SDS011;18508;49.386;8.370;2023-09-19T12:42:11;4.63;;;1.10;;
31990;SDS011;18508;49.386;8.370;2023-09-19T12:44:44;3.42;;;1.08;;
31990;SDS011;18508;49.386;8.370;2023-09-19T12:47:17;2.42;;;1.00;;
31990;SDS011;18508;49.386;8.370;2023-09-19T12:50:05;4.57;;;1.10;;
31990;SDS011;18508;49.386;8.370;2023-09-19T12:52:41;1.90;;;0.90;;
31990;SDS011;18508;49.386;8.370;2023-09-19T12:55:20;1.70;;;0.90;;
31990;SDS011;18508;49.386;8.370;2023-09-19T12:57:58;2.72;;;1.10;;
31990;SDS011;18508;49.386;8.370;2023-09-19T13:00:33;3.85;;;1.20;;
31990;SDS011;18508;49.386;8.370;2023-09-19T13:03:11;1.77;;;0.95;;
31990;SDS011;18508;49.386;8.370;2023-09-19T13:05:49;5.82;;;1.30;;
31990;SDS011;18508;49.386;8.370;2023-09-19T13:08:21;2.38;;;1.33;;
31990;SDS011;18508;49.386;8.370;2023-09-19T13:11:01;3.65;;;1.25;;
31990;SDS011;18508;49.386;8.370;2023-09-19T13:13:35;3.78;;;1.30;;
31990;SDS011;18508;49.386;8.370;2023-09-19T13:16:05;2.80;;;0.90;;
31990;SDS011;18508;49.386;8.370;2023-09-19T13:18:42;3.80;;;1.23;;
31990;SDS011;18508;49.386;8.370;2023-09-19T13:21:12;3.70;;;1.20;;
31990;SDS011;18508;49.386;8.370;2023-09-19T13:23:50;3.17;;;1.00;;
31990;SDS011;18508;49.386;8.370;2023-09-19T13:26:18;2.97;;;1.00;;
31990;SDS011;18508;49.386;8.370;2023-09-19T13:28:48;5.50;;;1.60;;
31990;SDS011;18508;49.386;8.370;2023-09-19T13:31:16;3.58;;;1.05;;
31990;SDS011;18508;49.386;8.370;2023-09-19T13:33:53;4.03;;;1.13;;
31990;SDS011;18508;49.386;8.370;2023-09-19T13:36:21;3.42;;;1.00;;
31990;SDS011;18508;49.386;8.370;2023-09-19T13:38:50;2.83;;;1.52;;
31990;SDS011;18508;49.386;8.370;2023-09-19T13:41:19;2.78;;;1.05;;
31990;SDS011;18508;49.386;8.370;2023-09-19T13:43:52;3.97;;;1.20;;
31990;SDS011;18508;49.386;8.370;2023-09-19T13:46:23;2.38;;;1.08;;
31990;SDS011;18508;49.386;8.370;2023-09-19T13:48:54;4.00;;;1.30;;
31990;SDS011;18508;49.386;8.370;2023-09-19T13:51:22;3.50;;;1.17;;
31990;SDS011;18508;49.386;8.370;2023-09-19T13:53:51;5.63;;;1.13;;
31990;SDS011;18508;49.386;8.370;2023-09-19T13:56:20;1.88;;;0.77;;
31990;SDS011;18508;49.386;8.370;2023-09-19T13:58:50;2.38;;;0.90;;
31990;SDS011;18508;49.386;8.370;2023-09-19T14:01:20;3.38;;;1.00;;
31990;SDS011;18508;49.386;8.370;2023-09-19T14:03:48;2.95;;;0.80;;
31990;SDS011;18508;49.386;8.370;2023-09-19T14:06:17;2.92;;;1.10;;
31990;SDS011;18508;49.386;8.370;2023-09-19T14:08:46;3.55;;;0.95;;
31990;SDS011;18508;49.386;8.370;2023-09-19T14:11:16;2.33;;;0.95;;
31990;SDS011;18508;49.386;8.370;2023-09-19T14:13:44;3.50;;;1.00;;
31990;SDS011;18508;49.386;8.370;2023-09-19T14:16:17;2.95;;;1.08;;
31990;SDS011;18508;49.386;8.370;2023-09-19T14:18:45;3.33;;;0.80;;
31990;SDS011;18508;49.386;8.370;2023-09-19T14:21:15;2.90;;;0.90;;
31990;SDS011;18508;49.386;8.370;2023-09-19T14:23:43;5.63;;;1.20;;
31990;SDS011;18508;49.386;8.370;2023-09-19T14:26:12;2.25;;;1.00;;
31990;SDS011;18508;49.386;8.370;2023-09-19T14:28:42;2.83;;;1.20;;
31990;SDS011;18508;49.386;8.370;2023-09-19T14:31:11;3.30;;;1.10;;
31990;SDS011;18508;49.386;8.370;2023-09-19T14:33:42;2.80;;;0.98;;
31990;SDS011;18508;49.386;8.370;2023-09-19T14:36:12;2.67;;;0.80;;
31990;SDS011;18508;49.386;8.370;2023-09-19T14:38:40;4.28;;;0.95;;
31990;SDS011;18508;49.386;8.370;2023-09-19T14:41:09;3.33;;;1.05;;
31990;SDS011;18508;49.386;8.370;2023-09-19T14:43:39;5.38;;;1.20;;
31990;SDS011;18508;49.386;8.370;2023-09-19T14:46:08;3.75;;;1.17;;
31990;SDS011;18508;49.386;8.370;2023-09-19T14:48:37;2.00;;;0.93;;
31990;SDS011;18508;49.386;8.370;2023-09-19T14:51:10;3.20;;;0.90;;
31990;SDS011;18508;49.386;8.370;2023-09-19T14:53:38;3.72;;;1.23;;
31990;SDS011;18508;49.386;8.370;2023-09-19T14:56:07;1.77;;;0.80;;
31990;SDS011;18508;49.386;8.370;2023-09-19T14:58:39;2.83;;;1.00;;
31990;SDS011;18508;49.386;8.370;2023-09-19T15:01:11;2.50;;;1.48;;
31990;SDS011;18508;49.386;8.370;2023-09-19T15:03:41;2.15;;;0.93;;
31990;SDS011;18508;49.386;8.370;2023-09-19T15:06:12;2.08;;;0.88;;
31990;SDS011;18508;49.386;8.370;2023-09-19T15:08:44;2.70;;;1.10;;
31990;SDS011;18508;49.386;8.370;2023-09-19T15:11:14;3.53;;;1.08;;
31990;SDS011;18508;49.386;8.370;2023-09-19T15:13:44;3.47;;;0.80;;
31990;SDS011;18508;49.386;8.370;2023-09-19T15:16:13;3.33;;;1.10;;
31990;SDS011;18508;49.386;8.370;2023-09-19T15:18:44;2.00;;;1.00;;
31990;SDS011;18508;49.386;8.370;2023-09-19T15:21:16;2.88;;;1.20;;
31990;SDS011;18508;49.386;8.370;2023-09-19T15:23:45;1.65;;;0.90;;
31990;SDS011;18508;49.386;8.370;2023-09-19T15:26:14;2.75;;;1.52;;
31990;SDS011;18508;49.386;8.370;2023-09-19T15:28:47;2.38;;;1.00;;
31990;SDS011;18508;49.386;8.370;2023-09-19T15:31:16;3.80;;;0.95;;
31990;SDS011;18508;49.386;8.370;2023-09-19T15:33:45;2.28;;;0.88;;
31990;SDS011;18508;49.386;8.370;2023-09-19T15:36:14;2.67;;;1.33;;